createdAt,value
2022-08-31T00:02:08.422Z,18.98
2022-08-31T00:04:55.264Z,18.70
2022-08-31T00:07:40.869Z,18.63
2022-08-31T00:10:32.663Z,19.85
2022-08-31T00:13:22.835Z,18.88
2022-08-31T00:16:10.782Z,17.10
2022-08-31T00:18:56.470Z,16.17
2022-08-31T00:21:45.020Z,14.05
2022-08-31T00:24:31.521Z,15.38
2022-08-31T00:27:16.180Z,16.08
2022-08-31T00:30:01.767Z,14.93
2022-08-31T00:32:46.640Z,13.75
2022-08-31T00:35:35.703Z,14.82
2022-08-31T00:38:20.838Z,15.38
2022-08-31T00:41:08.159Z,15.32
2022-08-31T00:43:59.697Z,13.82
2022-08-31T00:46:44.727Z,12.63
2022-08-31T00:49:37.294Z,14.48
2022-08-31T00:52:26.471Z,16.60
2022-08-31T00:55:22.351Z,12.60
2022-08-31T00:58:11.547Z,12.07
2022-08-31T01:00:59.078Z,14.07
2022-08-31T01:03:44.327Z,14.43
2022-08-31T01:06:29.205Z,12.45
2022-08-31T01:09:14.515Z,11.23
2022-08-31T01:11:59.524Z,13.23
2022-08-31T01:14:44.228Z,12.68
2022-08-31T01:17:32.280Z,13.65
2022-08-31T01:20:35.446Z,14.20
2022-08-31T01:23:28.637Z,14.75
2022-08-31T01:26:17.552Z,17.30
2022-08-31T01:29:06.455Z,16.92
2022-08-31T01:31:51.281Z,18.90
2022-08-31T01:34:36.220Z,18.27
2022-08-31T01:37:29.397Z,15.98
2022-08-31T01:40:15.663Z,19.90
2022-08-31T01:43:01.223Z,17.00
2022-08-31T01:45:46.316Z,21.05
2022-08-31T01:48:32.101Z,18.02
2022-08-31T01:51:19.405Z,16.65
2022-08-31T01:54:04.719Z,17.15
2022-08-31T01:56:49.543Z,18.63
2022-08-31T01:59:42.120Z,16.20
2022-08-31T02:02:43.892Z,16.35
2022-08-31T02:05:29.853Z,18.73
2022-08-31T02:08:17.921Z,16.02
2022-08-31T02:11:04.730Z,19.77
2022-08-31T02:13:49.287Z,18.10
2022-08-31T02:16:35.570Z,19.05
2022-08-31T02:19:20.595Z,16.85
2022-08-31T02:22:05.585Z,19.38
2022-08-31T02:24:50.286Z,19.38
2022-08-31T02:27:36.474Z,22.70
2022-08-31T02:30:24.914Z,19.40
2022-08-31T02:33:10.716Z,17.23
2022-08-31T02:35:56.279Z,19.00
2022-08-31T02:38:44.070Z,15.32
2022-08-31T02:41:28.946Z,16.40
2022-08-31T02:44:14.307Z,15.23
2022-08-31T02:46:59.126Z,16.10
2022-08-31T02:50:06.228Z,16.80
2022-08-31T02:52:54.469Z,15.85
2022-08-31T02:55:39.839Z,16.48
2022-08-31T02:58:24.725Z,16.25
2022-08-31T03:01:10.160Z,15.63
2022-08-31T03:03:56.203Z,16.48
2022-08-31T03:06:41.336Z,16.63
2022-08-31T03:09:26.515Z,21.55
2022-08-31T03:12:11.335Z,19.92
2022-08-31T03:14:57.043Z,23.80
2022-08-31T03:17:42.080Z,20.80
2022-08-31T03:20:28.186Z,20.02
2022-08-31T03:23:14.773Z,18.00
2022-08-31T03:25:59.589Z,18.00
2022-08-31T03:28:44.936Z,18.42
2022-08-31T03:32:05.315Z,21.10
2022-08-31T03:34:57.431Z,20.20
2022-08-31T03:37:41.959Z,21.55
2022-08-31T03:40:27.188Z,19.90
2022-08-31T03:43:13.250Z,20.95
2022-08-31T03:46:00.257Z,20.42
2022-08-31T03:48:49.385Z,26.83
2022-08-31T03:51:34.264Z,20.02
2022-08-31T03:54:20.353Z,19.50
2022-08-31T03:57:07.519Z,21.73
2022-08-31T03:59:55.130Z,19.77
2022-08-31T04:02:59.505Z,19.50
2022-08-31T04:05:50.338Z,22.67
2022-08-31T04:09:11.338Z,17.52
2022-08-31T04:12:16.691Z,17.77
2022-08-31T04:15:24.798Z,23.63
2022-08-31T04:18:33.391Z,28.02
2022-08-31T04:21:22.245Z,29.10
2022-08-31T04:24:07.704Z,31.38
2022-08-31T04:26:53.644Z,28.05
2022-08-31T04:29:39.195Z,20.33
2022-08-31T04:32:24.164Z,21.83
2022-08-31T04:35:09.534Z,20.00
2022-08-31T04:37:54.760Z,19.67
2022-08-31T04:40:41.032Z,18.38
2022-08-31T04:43:26.126Z,19.02
2022-08-31T04:46:11.837Z,19.90
2022-08-31T04:48:58.154Z,17.70
2022-08-31T04:51:42.799Z,19.38
2022-08-31T04:54:29.176Z,16.98
2022-08-31T04:57:14.089Z,20.25
2022-08-31T04:59:59.002Z,19.45
2022-08-31T05:03:04.142Z,16.33
2022-08-31T05:05:51.800Z,16.90
2022-08-31T05:08:37.460Z,14.52
2022-08-31T05:11:25.146Z,14.77
2022-08-31T05:14:10.749Z,13.80
2022-08-31T05:17:00.641Z,11.48
2022-08-31T05:19:48.397Z,15.70
2022-08-31T05:22:34.699Z,14.38
2022-08-31T05:25:19.667Z,12.55
2022-08-31T05:28:07.532Z,13.73
2022-08-31T05:30:52.912Z,13.18
2022-08-31T05:33:51.578Z,12.32
2022-08-31T05:36:43.735Z,11.30
2022-08-31T05:39:30.229Z,10.57
2022-08-31T05:42:15.295Z,10.85
2022-08-31T05:45:01.287Z,10.65
2022-08-31T05:47:46.344Z,9.77
2022-08-31T05:50:31.212Z,10.02
2022-08-31T05:53:19.793Z,8.88
2022-08-31T05:56:11.539Z,9.55
2022-08-31T05:58:57.249Z,12.00
2022-08-31T06:01:44.592Z,9.77
2022-08-31T06:04:37.932Z,9.57
2022-08-31T06:07:24.280Z,10.52
2022-08-31T06:10:15.351Z,10.88
2022-08-31T06:13:13.808Z,11.55
2022-08-31T06:16:03.267Z,9.93
2022-08-31T06:18:50.165Z,8.13
2022-08-31T06:21:50.494Z,10.63
2022-08-31T06:24:43.713Z,9.63
2022-08-31T06:27:29.264Z,9.35
2022-08-31T06:30:21.399Z,6.95
2022-08-31T06:33:07.389Z,7.35
2022-08-31T06:36:14.498Z,6.75
2022-08-31T06:39:29.690Z,7.57
2022-08-31T06:42:29.762Z,6.75
2022-08-31T06:45:18.034Z,6.88
2022-08-31T06:48:15.745Z,5.38
2022-08-31T06:51:00.725Z,4.80
2022-08-31T06:53:46.694Z,6.82
2022-08-31T06:56:50.448Z,6.38
2022-08-31T06:59:54.183Z,5.75
2022-08-31T07:03:19.347Z,6.22
2022-08-31T07:06:17.669Z,5.40
2022-08-31T07:09:07.735Z,8.00
2022-08-31T07:11:54.306Z,5.90
2022-08-31T07:14:39.170Z,6.63
2022-08-31T07:17:24.748Z,5.43
2022-08-31T07:20:09.921Z,6.72
2022-08-31T07:22:56.629Z,7.88
2022-08-31T07:25:53.475Z,5.55
2022-08-31T07:28:42.122Z,5.97
2022-08-31T07:31:39.082Z,7.35
2022-08-31T07:34:27.825Z,5.93
2022-08-31T07:38:06.534Z,7.15
2022-08-31T07:41:11.821Z,6.65
2022-08-31T07:43:58.924Z,6.93
2022-08-31T07:46:45.885Z,5.88
2022-08-31T07:49:32.643Z,5.65
2022-08-31T07:52:48.230Z,4.93
2022-08-31T07:55:59.772Z,5.65
2022-08-31T07:58:52.200Z,4.82
2022-08-31T08:01:41.097Z,8.35
2022-08-31T08:04:28.416Z,6.05
2022-08-31T08:07:42.364Z,4.97
2022-08-31T08:10:59.764Z,6.25
2022-08-31T08:13:45.008Z,5.20
2022-08-31T08:16:38.319Z,5.43
2022-08-31T08:19:43.784Z,6.18
2022-08-31T08:22:50.451Z,5.75
2022-08-31T08:25:46.038Z,4.30
2022-08-31T08:28:40.492Z,5.43
2022-08-31T08:31:28.392Z,6.00
2022-08-31T08:34:13.577Z,3.65
2022-08-31T08:36:58.631Z,3.35
2022-08-31T08:39:44.139Z,4.03
2022-08-31T08:42:32.071Z,3.28
2022-08-31T08:45:39.264Z,3.28
2022-08-31T08:48:44.198Z,5.07
2022-08-31T08:51:40.844Z,3.40
2022-08-31T08:54:35.669Z,4.03
2022-08-31T08:57:34.809Z,4.10
2022-08-31T09:00:28.189Z,3.17
2022-08-31T09:03:42.376Z,2.08
2022-08-31T09:06:54.435Z,2.13
2022-08-31T09:10:01.171Z,4.63
2022-08-31T09:13:37.263Z,4.28
2022-08-31T09:16:36.038Z,4.70
2022-08-31T09:22:05.996Z,13.15
2022-08-31T09:24:58.838Z,5.95
2022-08-31T09:28:06.947Z,6.68
2022-08-31T09:30:54.434Z,2.95
2022-08-31T09:33:50.452Z,3.03
2022-08-31T09:36:40.233Z,3.25
2022-08-31T09:39:36.947Z,2.50
2022-08-31T09:42:30.387Z,4.10
2022-08-31T09:45:26.261Z,4.68
2022-08-31T09:48:12.666Z,42.22
2022-08-31T09:51:02.814Z,5.05
2022-08-31T09:57:36.346Z,2.97
2022-08-31T10:00:43.164Z,3.30
2022-08-31T10:03:30.033Z,3.42
2022-08-31T10:06:41.125Z,7.90
2022-08-31T10:09:36.710Z,4.43
2022-08-31T10:12:55.870Z,7.13
2022-08-31T10:15:52.482Z,4.25
2022-08-31T10:19:04.106Z,4.18
2022-08-31T10:21:54.841Z,2.55
2022-08-31T10:24:45.835Z,4.30
2022-08-31T10:27:59.078Z,5.00
2022-08-31T10:31:00.794Z,5.85
2022-08-31T10:34:21.676Z,2.85
2022-08-31T10:37:24.370Z,8.10
2022-08-31T10:43:10.712Z,4.90
2022-08-31T10:45:56.144Z,3.67
2022-08-31T10:48:47.301Z,6.07
2022-08-31T10:52:02.682Z,5.75
2022-08-31T10:55:06.166Z,4.07
2022-08-31T10:58:07.764Z,3.33
2022-08-31T11:01:21.900Z,3.13
2022-08-31T11:04:52.436Z,4.07
2022-08-31T11:08:13.489Z,14.68
2022-08-31T11:10:59.552Z,2.80
2022-08-31T11:14:03.257Z,3.67
2022-08-31T11:17:26.134Z,2.22
2022-08-31T11:20:51.032Z,5.60
2022-08-31T11:24:03.446Z,3.42
2022-08-31T11:27:19.645Z,2.33
2022-08-31T11:30:32.285Z,2.90
2022-08-31T11:33:27.668Z,3.58
2022-08-31T11:36:41.685Z,2.92
2022-08-31T11:39:30.425Z,3.58
2022-08-31T11:42:18.461Z,3.70
2022-08-31T11:45:29.433Z,3.67
2022-08-31T11:48:53.153Z,3.50
2022-08-31T11:51:41.881Z,4.82
2022-08-31T11:54:27.147Z,4.10
2022-08-31T11:57:16.995Z,2.53
2022-08-31T12:00:02.251Z,4.45
2022-08-31T12:03:04.845Z,2.65
2022-08-31T12:05:55.794Z,1.33
2022-08-31T12:08:54.072Z,2.92
2022-08-31T12:12:19.106Z,3.40
2022-08-31T12:15:38.865Z,4.15
2022-08-31T12:18:37.980Z,3.70
2022-08-31T12:21:57.387Z,3.03
2022-08-31T12:25:22.537Z,2.58
2022-08-31T12:28:41.843Z,2.42
2022-08-31T12:31:27.147Z,4.00
2022-08-31T12:34:16.610Z,3.25
2022-08-31T12:37:36.988Z,2.35
2022-08-31T12:40:25.522Z,2.08
2022-08-31T12:43:21.163Z,2.00
2022-08-31T12:46:15.500Z,3.70
2022-08-31T12:49:21.717Z,2.03
2022-08-31T12:52:18.956Z,6.38
2022-08-31T12:55:21.962Z,3.25
2022-08-31T12:58:27.206Z,5.28
2022-08-31T13:01:20.901Z,3.05
2022-08-31T13:04:07.044Z,3.65
2022-08-31T13:06:52.506Z,3.25
2022-08-31T13:09:37.830Z,1.90
2022-08-31T13:12:23.825Z,2.53
2022-08-31T13:15:20.017Z,4.15
2022-08-31T13:21:05.450Z,3.45
2022-08-31T13:23:51.300Z,6.40
2022-08-31T13:26:37.966Z,6.47
2022-08-31T13:29:23.351Z,3.45
2022-08-31T13:32:08.930Z,2.67
2022-08-31T13:34:54.485Z,3.38
2022-08-31T13:37:59.616Z,5.45
2022-08-31T13:40:51.451Z,3.00
2022-08-31T13:43:37.732Z,2.75
2022-08-31T13:46:37.654Z,4.22
2022-08-31T13:49:34.807Z,4.00
2022-08-31T13:52:26.191Z,2.20
2022-08-31T13:55:13.051Z,2.22
2022-08-31T13:58:22.230Z,3.53
2022-08-31T14:01:25.828Z,3.78
2022-08-31T14:04:38.526Z,3.33
2022-08-31T14:07:29.474Z,5.47
2022-08-31T14:10:25.864Z,4.03
2022-08-31T14:13:13.688Z,2.50
2022-08-31T14:16:01.880Z,2.85
2022-08-31T14:18:55.379Z,2.47
2022-08-31T14:21:41.637Z,3.78
2022-08-31T14:24:26.649Z,4.57
2022-08-31T14:27:11.875Z,1.98
2022-08-31T14:29:57.699Z,2.15
2022-08-31T14:32:45.208Z,4.30
2022-08-31T14:35:33.737Z,5.47
2022-08-31T14:38:18.949Z,2.63
2022-08-31T14:41:07.101Z,2.50
2022-08-31T14:43:53.894Z,4.88
2022-08-31T14:46:41.373Z,2.50
2022-08-31T14:49:28.641Z,2.80
2022-08-31T14:52:16.745Z,2.97
2022-08-31T14:55:02.755Z,2.42
2022-08-31T14:57:57.971Z,2.00
2022-08-31T15:00:53.155Z,2.60
2022-08-31T15:03:39.800Z,3.45
2022-08-31T15:06:27.019Z,1.88
2022-08-31T15:09:12.873Z,2.35
2022-08-31T15:12:00.832Z,2.28
2022-08-31T15:14:46.632Z,2.25
2022-08-31T15:17:35.575Z,4.13
2022-08-31T15:20:22.123Z,2.95
2022-08-31T15:23:08.893Z,3.10
2022-08-31T15:26:23.907Z,3.88
2022-08-31T15:29:13.182Z,3.83
2022-08-31T15:32:01.490Z,4.88
2022-08-31T15:34:57.140Z,2.42
2022-08-31T15:37:44.561Z,6.18
2022-08-31T15:40:34.488Z,4.80
2022-08-31T15:43:22.767Z,3.28
2022-08-31T15:46:13.302Z,3.78
2022-08-31T15:48:58.604Z,3.83
2022-08-31T15:51:48.380Z,6.18
2022-08-31T15:54:35.239Z,3.83
2022-08-31T15:57:20.657Z,5.15
2022-08-31T16:00:06.694Z,4.18
2022-08-31T16:02:56.601Z,2.65
2022-08-31T16:05:43.712Z,5.60
2022-08-31T16:08:28.634Z,4.13
2022-08-31T16:11:13.760Z,3.15
2022-08-31T16:13:59.784Z,5.72
2022-08-31T16:16:47.470Z,3.55
2022-08-31T16:19:35.780Z,5.15
2022-08-31T16:22:22.015Z,4.25
2022-08-31T16:25:12.399Z,3.65
2022-08-31T16:27:59.584Z,5.60
2022-08-31T16:30:44.950Z,3.75
2022-08-31T16:33:57.440Z,4.57
2022-08-31T16:36:42.426Z,3.97
2022-08-31T16:39:28.443Z,4.88
2022-08-31T16:42:14.565Z,7.80
2022-08-31T16:45:02.156Z,4.90
2022-08-31T16:47:47.569Z,6.25
2022-08-31T16:50:33.179Z,6.57
2022-08-31T16:53:18.213Z,4.68
2022-08-31T16:56:03.844Z,4.65
2022-08-31T16:58:52.142Z,5.97
2022-08-31T17:01:45.118Z,6.03
2022-08-31T17:04:50.895Z,8.35
2022-08-31T17:07:36.257Z,6.88
2022-08-31T17:10:21.268Z,7.53
2022-08-31T17:13:07.620Z,6.05
2022-08-31T17:15:52.815Z,9.52
2022-08-31T17:18:41.854Z,7.68
2022-08-31T17:21:28.930Z,7.40
2022-08-31T17:24:15.516Z,7.57
2022-08-31T17:27:02.214Z,8.45
2022-08-31T17:29:51.653Z,7.70
2022-08-31T17:32:36.828Z,7.82
2022-08-31T17:35:31.460Z,6.25
2022-08-31T17:38:16.457Z,8.27
2022-08-31T17:41:08.231Z,9.02
2022-08-31T17:44:19.615Z,8.63
2022-08-31T17:47:04.864Z,8.30
2022-08-31T17:49:53.535Z,8.25
2022-08-31T17:52:38.371Z,9.38
2022-08-31T17:55:23.172Z,8.45
2022-08-31T17:58:08.140Z,8.85
2022-08-31T18:00:54.106Z,9.73
2022-08-31T18:03:39.188Z,8.18
2022-08-31T18:06:24.262Z,8.75
2022-08-31T18:09:10.858Z,5.53
2022-08-31T18:11:59.299Z,6.85
2022-08-31T18:14:44.585Z,7.53
2022-08-31T18:17:29.690Z,6.80
2022-08-31T18:20:14.705Z,6.50
2022-08-31T18:22:59.442Z,8.10
2022-08-31T18:25:45.121Z,5.75
2022-08-31T18:28:30.229Z,8.48
2022-08-31T18:31:17.460Z,8.25
2022-08-31T18:34:06.187Z,6.80
2022-08-31T18:36:54.919Z,8.57
2022-08-31T18:39:59.870Z,8.45
2022-08-31T18:43:04.313Z,8.68
2022-08-31T18:45:49.894Z,7.68
2022-08-31T18:48:36.951Z,9.57
2022-08-31T18:51:22.874Z,7.60
2022-08-31T18:54:08.467Z,6.68
2022-08-31T18:56:53.705Z,7.43
2022-08-31T18:59:39.173Z,6.95
2022-08-31T19:02:23.970Z,10.30
2022-08-31T19:05:11.219Z,8.23
2022-08-31T19:07:58.358Z,7.53
2022-08-31T19:10:43.606Z,7.38
2022-08-31T19:13:31.642Z,6.65
2022-08-31T19:16:21.231Z,7.57
2022-08-31T19:19:07.282Z,7.05
2022-08-31T19:21:52.667Z,8.48
2022-08-31T19:24:39.716Z,8.00
2022-08-31T19:27:25.445Z,6.35
2022-08-31T19:30:11.475Z,8.18
2022-08-31T19:32:56.888Z,5.93
2022-08-31T19:35:42.121Z,7.32
2022-08-31T19:38:28.547Z,5.57
2022-08-31T19:41:20.415Z,5.40
2022-08-31T19:44:08.764Z,5.88
2022-08-31T19:46:55.203Z,5.68
2022-08-31T19:49:41.865Z,6.55
2022-08-31T19:52:26.717Z,6.82
2022-08-31T19:55:11.886Z,4.60
2022-08-31T19:57:57.698Z,5.10
2022-08-31T20:00:43.753Z,6.28
2022-08-31T20:03:31.295Z,5.10
2022-08-31T20:06:21.736Z,5.55
2022-08-31T20:11:53.948Z,6.68
2022-08-31T20:15:05.092Z,6.50
2022-08-31T20:17:56.073Z,6.57
2022-08-31T20:21:17.363Z,6.80
2022-08-31T20:24:06.023Z,8.85
2022-08-31T20:26:52.188Z,5.50
2022-08-31T20:29:38.016Z,7.78
2022-08-31T20:32:23.054Z,9.07
2022-08-31T20:35:08.182Z,6.03
2022-08-31T20:37:53.309Z,5.60
2022-08-31T20:40:38.805Z,7.03
2022-08-31T20:43:48.907Z,6.32
2022-08-31T20:46:52.892Z,8.07
2022-08-31T20:49:43.890Z,7.55
2022-08-31T20:52:34.220Z,9.57
2022-08-31T20:55:48.309Z,7.03
2022-08-31T20:58:33.195Z,7.25
2022-08-31T21:01:18.328Z,6.32
2022-08-31T21:04:04.876Z,6.15
2022-08-31T21:06:51.727Z,5.82
2022-08-31T21:09:36.588Z,7.95
2022-08-31T21:12:22.333Z,5.95
2022-08-31T21:15:09.969Z,6.95
2022-08-31T21:17:56.460Z,7.93
2022-08-31T21:20:42.421Z,5.82
2022-08-31T21:23:27.612Z,8.18
2022-08-31T21:26:23.898Z,6.07
2022-08-31T21:29:12.525Z,8.38
2022-08-31T21:32:03.403Z,7.60
2022-08-31T21:34:48.481Z,7.53
2022-08-31T21:37:33.690Z,9.20
2022-08-31T21:40:18.897Z,7.22
2022-08-31T21:43:04.775Z,7.88
2022-08-31T21:46:09.834Z,7.00
2022-08-31T21:48:57.220Z,10.07
2022-08-31T21:51:49.836Z,8.18
2022-08-31T21:54:35.062Z,9.27
2022-08-31T21:57:21.705Z,7.47
2022-08-31T22:00:13.172Z,6.70
2022-08-31T22:02:59.727Z,7.85
2022-08-31T22:06:12.039Z,7.90
2022-08-31T22:09:07.507Z,7.38
2022-08-31T22:11:55.967Z,6.57
2022-08-31T22:15:09.991Z,6.55
2022-08-31T22:18:45.932Z,6.65
2022-08-31T22:21:00.397Z,6.82
2022-08-31T22:23:48.648Z,6.30
2022-08-31T22:26:38.403Z,7.65
2022-08-31T22:29:25.856Z,5.03
2022-08-31T22:32:14.472Z,6.28
2022-08-31T22:34:59.960Z,7.43
2022-08-31T22:37:45.005Z,10.95
2022-08-31T22:40:30.202Z,7.00
2022-08-31T22:43:16.618Z,6.18
2022-08-31T22:46:01.548Z,8.55
2022-08-31T22:48:46.858Z,5.32
2022-08-31T22:51:34.532Z,8.35
2022-08-31T22:54:24.710Z,7.13
2022-08-31T22:57:10.211Z,8.82
2022-08-31T22:59:55.394Z,6.40
2022-08-31T23:02:50.894Z,5.95
2022-08-31T23:05:36.411Z,6.85
2022-08-31T23:08:22.025Z,7.15
2022-08-31T23:11:08.199Z,6.93
2022-08-31T23:13:56.088Z,7.93
2022-08-31T23:16:44.614Z,8.50
2022-08-31T23:19:36.053Z,7.22
2022-08-31T23:22:24.442Z,6.55
2022-08-31T23:25:12.088Z,8.00
2022-08-31T23:27:58.816Z,6.20
2022-08-31T23:30:44.087Z,9.65
2022-08-31T23:33:30.501Z,7.00
2022-08-31T23:36:16.687Z,11.15
2022-08-31T23:39:03.565Z,7.57
2022-08-31T23:41:48.919Z,6.25
2022-08-31T23:44:35.457Z,7.65
2022-08-31T23:47:25.535Z,8.23
2022-08-31T23:50:10.691Z,6.22
2022-08-31T23:52:57.183Z,8.95
2022-08-31T23:55:44.041Z,7.80
2022-08-31T23:58:31.266Z,9.30
